createdAt,value
2022-10-01T00:03:35.435Z,99.14
2022-10-01T00:07:41.528Z,100.00
2022-10-01T00:11:43.266Z,100.00
2022-10-01T00:15:44.963Z,100.00
2022-10-01T00:19:46.647Z,100.00
2022-10-01T00:23:53.417Z,100.00
2022-10-01T00:27:55.685Z,100.00
2022-10-01T00:31:58.034Z,100.00
2022-10-01T00:35:59.790Z,100.00
2022-10-01T00:40:01.821Z,100.00
2022-10-01T00:44:26.848Z,100.00
2022-10-01T00:48:31.063Z,100.00
2022-10-01T00:52:36.236Z,100.00
2022-10-01T00:56:38.646Z,100.00
2022-10-01T01:00:42.468Z,100.00
2022-10-01T01:04:44.907Z,100.00
2022-10-01T01:08:46.651Z,100.00
2022-10-01T01:13:07.013Z,100.00
2022-10-01T01:17:23.473Z,100.00
2022-10-01T01:21:42.695Z,100.00
2022-10-01T01:26:16.645Z,100.00
2022-10-01T01:30:19.177Z,100.00
2022-10-01T01:34:26.448Z,100.00
2022-10-01T01:38:32.761Z,100.00
2022-10-01T01:42:37.782Z,100.00
2022-10-01T01:46:44.698Z,100.00
2022-10-01T01:51:09.799Z,100.00
2022-10-01T01:55:11.747Z,100.00
2022-10-01T01:59:13.889Z,100.00
2022-10-01T02:03:15.567Z,100.00
2022-10-01T02:07:26.193Z,100.00
2022-10-01T02:11:38.322Z,100.00
2022-10-01T02:15:45.852Z,100.00
2022-10-01T02:20:07.599Z,100.00
2022-10-01T02:24:14.460Z,100.00
2022-10-01T02:28:21.088Z,100.00
2022-10-01T02:32:24.213Z,100.00
2022-10-01T02:36:27.710Z,100.00
2022-10-01T02:40:32.549Z,100.00
2022-10-01T02:44:40.207Z,100.00
2022-10-01T02:48:42.355Z,100.00
2022-10-01T02:53:05.771Z,100.00
2022-10-01T02:57:27.694Z,100.00
2022-10-01T03:01:29.910Z,100.00
2022-10-01T03:05:31.657Z,100.00
2022-10-01T03:09:34.839Z,100.00
2022-10-01T03:13:36.841Z,100.00
2022-10-01T03:17:38.559Z,100.00
2022-10-01T03:21:40.299Z,100.00
2022-10-01T03:25:41.995Z,100.00
2022-10-01T03:29:44.642Z,100.00
2022-10-01T03:33:46.414Z,100.00
2022-10-01T03:37:48.066Z,100.00
2022-10-01T03:41:50.120Z,100.00
2022-10-01T03:45:51.835Z,100.00
2022-10-01T03:49:53.573Z,100.00
2022-10-01T03:53:56.663Z,100.00
2022-10-01T03:57:58.752Z,100.00
2022-10-01T04:02:00.521Z,100.00
2022-10-01T04:06:02.383Z,100.00
2022-10-01T04:10:04.375Z,100.00
2022-10-01T04:14:06.105Z,100.00
2022-10-01T04:18:09.062Z,100.00
2022-10-01T04:22:10.768Z,100.00
2022-10-01T04:26:12.586Z,100.00
2022-10-01T04:30:14.213Z,100.00
2022-10-01T04:34:15.887Z,100.00
2022-10-01T04:38:17.576Z,100.00
2022-10-01T04:42:19.695Z,100.00
2022-10-01T04:46:21.349Z,100.00
2022-10-01T04:50:24.840Z,100.00
2022-10-01T04:54:26.856Z,100.00
2022-10-01T04:58:28.526Z,100.00
2022-10-01T05:02:30.334Z,100.00
2022-10-01T05:06:32.049Z,100.00
2022-10-01T05:10:34.029Z,100.00
2022-10-01T05:14:35.677Z,100.00
2022-10-01T05:18:37.466Z,100.00
2022-10-01T05:22:39.243Z,100.00
2022-10-01T05:26:40.999Z,100.00
2022-10-01T05:30:43.155Z,100.00
2022-10-01T05:34:46.364Z,100.00
2022-10-01T05:38:52.439Z,100.00
2022-10-01T05:42:58.519Z,100.00
2022-10-01T05:47:00.293Z,100.00
2022-10-01T05:51:04.300Z,100.00
2022-10-01T05:55:06.154Z,100.00
2022-10-01T05:59:07.999Z,100.00
2022-10-01T06:03:12.910Z,100.00
2022-10-01T06:07:14.768Z,100.00
2022-10-01T06:11:17.146Z,100.00
2022-10-01T06:15:19.018Z,100.00
2022-10-01T06:19:20.737Z,100.00
2022-10-01T06:23:22.582Z,100.00
2022-10-01T06:27:24.244Z,100.00
2022-10-01T06:31:26.000Z,100.00
2022-10-01T06:35:27.722Z,100.00
2022-10-01T06:39:29.358Z,100.00
2022-10-01T06:43:32.332Z,100.00
2022-10-01T06:47:34.031Z,100.00
2022-10-01T06:51:54.257Z,100.00
2022-10-01T06:55:56.244Z,100.00
2022-10-01T06:59:58.537Z,100.00
2022-10-01T07:04:00.372Z,100.00
2022-10-01T07:08:02.154Z,100.00
2022-10-01T07:12:03.938Z,100.00
2022-10-01T07:16:06.056Z,100.00
2022-10-01T07:20:08.445Z,100.00
2022-10-01T07:24:10.110Z,100.00
2022-10-01T07:28:18.435Z,100.00
2022-10-01T07:32:21.238Z,100.00
2022-10-01T07:36:22.899Z,100.00
2022-10-01T07:40:24.644Z,100.00
2022-10-01T07:44:29.586Z,100.00
2022-10-01T07:48:31.254Z,100.00
2022-10-01T07:52:32.966Z,100.00
2022-10-01T07:56:34.736Z,100.00
2022-10-01T08:00:36.448Z,100.00
2022-10-01T08:04:56.802Z,100.00
2022-10-01T08:08:58.499Z,100.00
2022-10-01T08:13:13.451Z,100.00
2022-10-01T08:17:15.173Z,100.00
2022-10-01T08:21:16.821Z,100.00
2022-10-01T08:25:18.542Z,100.00
2022-10-01T08:29:20.522Z,99.42
2022-10-01T08:33:23.201Z,98.42
2022-10-01T08:37:29.326Z,97.69
2022-10-01T08:41:49.702Z,96.53
2022-10-01T08:45:54.376Z,96.59
2022-10-01T08:50:03.814Z,96.28
2022-10-01T08:54:15.350Z,97.13
2022-10-01T08:58:27.052Z,95.75
2022-10-01T09:02:42.875Z,95.73
2022-10-01T09:06:52.164Z,93.87
2022-10-01T09:11:01.365Z,91.49
2022-10-01T09:15:29.682Z,92.04
2022-10-01T09:19:58.988Z,90.30
2022-10-01T09:24:09.484Z,90.10
2022-10-01T09:28:27.820Z,89.39
2022-10-01T09:32:39.360Z,89.18
2022-10-01T09:37:05.675Z,87.50
2022-10-01T09:41:11.823Z,86.08
2022-10-01T09:45:18.775Z,85.69
2022-10-01T09:49:45.745Z,85.43
2022-10-01T09:54:28.913Z,83.86
2022-10-01T09:58:34.948Z,84.94
2022-10-01T10:02:49.304Z,85.12
2022-10-01T10:06:59.628Z,83.91
2022-10-01T10:11:10.671Z,83.60
2022-10-01T10:15:19.326Z,83.00
2022-10-01T10:19:27.502Z,80.13
2022-10-01T10:23:32.222Z,80.05
2022-10-01T10:27:34.007Z,80.93
2022-10-01T10:31:44.856Z,81.17
2022-10-01T10:35:47.021Z,80.40
2022-10-01T10:39:52.755Z,79.18
2022-10-01T10:43:59.318Z,78.33
2022-10-01T10:48:04.718Z,80.02
2022-10-01T10:52:37.307Z,80.50
2022-10-01T10:56:39.354Z,79.56
2022-10-01T11:00:48.307Z,78.28
2022-10-01T11:04:50.648Z,77.97
2022-10-01T11:09:10.715Z,76.41
2022-10-01T11:13:25.506Z,76.03
2022-10-01T11:17:44.877Z,75.52
2022-10-01T11:22:06.283Z,76.38
2022-10-01T11:26:40.682Z,76.31
2022-10-01T11:31:03.671Z,76.15
2022-10-01T11:35:37.313Z,75.96
2022-10-01T11:39:43.126Z,75.41
2022-10-01T11:44:01.568Z,74.87
2022-10-01T11:48:41.187Z,74.05
2022-10-01T11:53:04.427Z,75.19
2022-10-01T11:57:32.604Z,74.07
2022-10-01T12:01:49.837Z,74.66
2022-10-01T12:05:53.035Z,73.34
2022-10-01T12:10:14.655Z,73.18
2022-10-01T12:14:20.741Z,73.17
2022-10-01T12:18:33.165Z,73.63
2022-10-01T12:22:39.125Z,73.41
2022-10-01T12:26:46.780Z,73.10
2022-10-01T12:31:02.309Z,72.14
2022-10-01T12:35:41.182Z,70.88
2022-10-01T12:39:51.862Z,71.37
2022-10-01T12:44:39.455Z,70.10
2022-10-01T12:49:08.590Z,70.91
2022-10-01T12:53:32.291Z,71.51
2022-10-01T12:58:01.269Z,70.48
2022-10-01T13:02:24.442Z,70.63
2022-10-01T13:07:05.340Z,70.84
2022-10-01T13:11:52.425Z,70.76
2022-10-01T13:16:03.268Z,70.77
2022-10-01T13:20:27.508Z,70.80
2022-10-01T13:24:48.142Z,70.90
2022-10-01T13:29:06.060Z,69.07
2022-10-01T13:33:36.236Z,68.71
2022-10-01T13:37:39.944Z,70.00
2022-10-01T13:41:42.428Z,69.39
2022-10-01T13:45:47.153Z,69.22
2022-10-01T13:50:05.406Z,70.11
2022-10-01T13:54:22.772Z,70.07
2022-10-01T13:58:32.035Z,70.51
2022-10-01T14:02:42.297Z,71.38
2022-10-01T14:06:51.072Z,71.62
2022-10-01T14:11:20.743Z,71.91
2022-10-01T14:15:40.573Z,72.19
2022-10-01T14:19:52.793Z,72.00
2022-10-01T14:24:02.829Z,69.89
2022-10-01T14:28:38.288Z,68.69
2022-10-01T14:33:05.713Z,67.98
2022-10-01T14:37:16.232Z,68.34
2022-10-01T14:41:23.468Z,68.26
2022-10-01T14:45:25.378Z,67.38
2022-10-01T14:49:32.483Z,66.96
2022-10-01T14:53:37.247Z,67.38
2022-10-01T14:57:43.059Z,68.92
2022-10-01T15:02:00.295Z,68.98
2022-10-01T15:06:04.605Z,68.29
2022-10-01T15:10:08.203Z,67.68
2022-10-01T15:14:19.264Z,67.93
2022-10-01T15:18:22.309Z,68.07
2022-10-01T15:22:28.739Z,68.44
2022-10-01T15:26:32.775Z,69.02
2022-10-01T15:30:36.942Z,69.39
2022-10-01T15:34:41.647Z,69.87
2022-10-01T15:38:46.068Z,69.70
2022-10-01T15:43:07.687Z,70.18
2022-10-01T15:47:31.139Z,70.51
2022-10-01T15:51:33.030Z,70.37
2022-10-01T15:55:49.561Z,70.32
2022-10-01T15:59:54.678Z,70.28
2022-10-01T16:04:05.284Z,70.41
2022-10-01T16:08:07.016Z,71.54
2022-10-01T16:12:11.719Z,73.78
2022-10-01T16:16:13.410Z,74.90
2022-10-01T16:20:15.031Z,76.00
2022-10-01T16:24:29.761Z,77.01
2022-10-01T16:28:35.946Z,76.89
2022-10-01T16:32:37.937Z,77.17
2022-10-01T16:36:39.794Z,77.48
2022-10-01T16:40:44.682Z,77.95
2022-10-01T16:44:46.467Z,78.34
2022-10-01T16:48:51.535Z,78.96
2022-10-01T16:52:55.519Z,78.75
2022-10-01T16:56:59.287Z,79.30
2022-10-01T17:01:06.784Z,79.05
2022-10-01T17:05:25.321Z,79.21
2022-10-01T17:09:27.009Z,79.67
2022-10-01T17:13:34.046Z,79.36
2022-10-01T17:17:35.694Z,79.44
2022-10-01T17:21:37.357Z,79.49
2022-10-01T17:25:40.207Z,79.75
2022-10-01T17:29:41.942Z,79.93
2022-10-01T17:33:43.761Z,80.34
2022-10-01T17:37:45.413Z,80.74
2022-10-01T17:41:47.270Z,81.47
2022-10-01T17:45:56.723Z,81.67
2022-10-01T17:49:58.691Z,81.44
2022-10-01T17:54:02.580Z,81.86
2022-10-01T17:58:04.277Z,81.79
2022-10-01T18:02:18.837Z,81.71
2022-10-01T18:06:29.666Z,82.23
2022-10-01T18:10:31.332Z,82.11
2022-10-01T18:14:33.082Z,82.22
2022-10-01T18:22:56.686Z,82.51
2022-10-01T18:26:58.380Z,82.59
2022-10-01T18:31:18.823Z,83.02
2022-10-01T18:35:31.966Z,82.95
2022-10-01T18:39:40.103Z,83.39
2022-10-01T18:43:42.927Z,83.47
2022-10-01T18:48:17.034Z,82.95
2022-10-01T18:52:49.613Z,83.33
2022-10-01T18:57:17.532Z,83.19
2022-10-01T19:02:01.021Z,83.52
2022-10-01T19:06:11.776Z,83.55
2022-10-01T19:10:40.327Z,83.69
2022-10-01T19:15:00.970Z,83.88
2022-10-01T19:19:44.360Z,83.70
2022-10-01T19:23:58.153Z,83.95
2022-10-01T19:28:18.438Z,83.69
2022-10-01T19:32:23.931Z,83.84
2022-10-01T19:36:34.790Z,84.10
2022-10-01T19:40:46.350Z,84.69
2022-10-01T19:45:09.209Z,84.95
2022-10-01T19:49:25.608Z,84.59
2022-10-01T19:53:32.124Z,84.94
2022-10-01T19:57:44.330Z,84.91
2022-10-01T20:01:54.252Z,84.81
2022-10-01T20:06:37.731Z,85.01
2022-10-01T20:10:47.214Z,84.68
2022-10-01T20:15:10.635Z,84.91
2022-10-01T20:19:41.201Z,85.05
2022-10-01T20:23:52.393Z,85.19
2022-10-01T20:28:33.699Z,85.09
2022-10-01T20:33:04.738Z,85.38
2022-10-01T20:37:08.483Z,85.48
2022-10-01T20:41:16.532Z,85.84
2022-10-01T20:45:29.988Z,86.09
2022-10-01T20:49:38.802Z,86.31
2022-10-01T20:53:46.657Z,86.59
2022-10-01T20:57:53.498Z,86.46
2022-10-01T21:02:02.589Z,86.56
2022-10-01T21:06:13.781Z,87.14
2022-10-01T21:10:34.710Z,87.35
2022-10-01T21:14:46.366Z,87.61
2022-10-01T21:19:10.227Z,87.95
2022-10-01T21:23:33.350Z,88.01
2022-10-01T21:28:06.501Z,88.30
2022-10-01T21:32:20.243Z,88.25
2022-10-01T21:37:00.518Z,88.61
2022-10-01T21:41:13.390Z,88.28
2022-10-01T21:45:33.514Z,88.65
2022-10-01T21:49:53.494Z,89.04
2022-10-01T21:54:18.563Z,88.60
2022-10-01T21:59:04.674Z,89.39
2022-10-01T22:03:19.776Z,88.62
2022-10-01T22:07:24.170Z,88.09
2022-10-01T22:11:39.823Z,88.03
2022-10-01T22:15:44.574Z,87.66
2022-10-01T22:19:50.787Z,87.34
2022-10-01T22:24:03.944Z,87.15
2022-10-01T22:28:16.665Z,86.42
2022-10-01T22:32:24.516Z,86.22
2022-10-01T22:36:54.924Z,86.34
2022-10-01T22:41:08.378Z,85.99
2022-10-01T22:45:15.621Z,85.74
2022-10-01T22:49:23.262Z,85.61
2022-10-01T22:53:53.570Z,85.18
2022-10-01T22:58:04.945Z,85.07
2022-10-01T23:02:31.539Z,84.72
2022-10-01T23:06:43.766Z,84.73
2022-10-01T23:11:06.011Z,84.83
2022-10-01T23:15:52.540Z,85.15
2022-10-01T23:20:23.132Z,85.02
2022-10-01T23:24:50.845Z,85.46
2022-10-01T23:29:13.223Z,85.35
2022-10-01T23:33:26.949Z,85.98
2022-10-01T23:37:45.450Z,85.93
2022-10-01T23:41:53.818Z,85.82
2022-10-01T23:46:20.403Z,86.50
2022-10-01T23:50:30.917Z,86.37
2022-10-01T23:54:47.410Z,86.82
2022-10-01T23:59:14.149Z,87.06
